Time;durP1;ratioP1;P1;durP2;ratioP2;P2;SDS_P1;SDS_P2;PMS_P1;PMS_P2;Temp;Humidity;BMP_temperature;BMP_pressure;BME280_temperature;BME280_humidity;BME280_pressure;Samples;Min_cycle;Max_cycle;Signal;HPM_P1;HPM_P2
2023/06/14 00:05:24;;;;;;;4.90;2.20;;;17.90;99.90;;;;;;12401163;28;20045;-38
2023/06/14 00:11:26;;;;;;;8.10;2.30;;;17.90;99.90;;;;;;12413532;28;20450;-38
2023/06/14 00:17:30;;;;;;;6.82;2.08;;;17.20;99.90;;;;;;12398832;28;20301;-37
2023/06/14 00:23:32;;;;;;;7.88;2.30;;;16.90;99.90;;;;;;12402838;28;20142;-38
2023/06/14 00:29:34;;;;;;;5.97;2.10;;;17.00;99.90;;;;;;12415299;28;20674;-38
2023/06/14 00:35:36;;;;;;;3.45;1.88;;;17.10;99.90;;;;;;12407729;28;20042;-38
2023/06/14 00:41:38;;;;;;;4.50;1.77;;;17.20;99.90;;;;;;12412850;28;20053;-39
2023/06/14 00:47:42;;;;;;;6.05;2.15;;;17.10;99.90;;;;;;12400066;28;20086;-38
2023/06/14 00:53:46;;;;;;;6.22;2.20;;;17.60;99.90;;;;;;12396606;28;20072;-38
2023/06/14 00:59:49;;;;;;;6.53;2.10;;;17.80;99.90;;;;;;12404236;28;20172;-38
2023/06/14 01:06:02;;;;;;;5.65;2.28;;;17.90;99.90;;;;;;12400099;28;20044;-38
2023/06/14 01:12:29;;;;;;;3.38;2.00;;;17.90;99.90;;;;;;12408693;28;20049;-38
2023/06/14 01:18:32;;;;;;;2.72;1.80;;;17.90;99.90;;;;;;12377943;28;20054;-38
2023/06/14 01:24:34;;;;;;;3.95;2.13;;;17.80;99.90;;;;;;12408602;28;20513;-38
2023/06/14 01:30:38;;;;;;;5.72;1.92;;;17.70;99.90;;;;;;12401407;28;20085;-38
2023/06/14 01:36:41;;;;;;;;;;;17.60;99.90;;;;;;12422702;28;20057;-38
2023/06/14 01:42:45;;;;;;;3.85;1.77;;;17.50;99.90;;;;;;12414645;28;19944;-38
2023/06/14 01:48:48;;;;;;;6.03;2.03;;;17.30;99.90;;;;;;12384547;28;20053;-38
2023/06/14 01:54:50;;;;;;;6.38;2.20;;;17.40;99.90;;;;;;12415906;28;20503;-38
2023/06/14 02:00:55;;;;;;;4.28;1.73;;;17.30;99.90;;;;;;12399446;28;20057;-38
2023/06/14 02:06:57;;;;;;;6.70;2.13;;;17.30;99.90;;;;;;12399685;28;20057;-38
2023/06/14 02:13:00;;;;;;;3.33;2.00;;;17.30;99.90;;;;;;12421939;28;20081;-38
2023/06/14 02:19:02;;;;;;;7.72;2.00;;;17.10;99.90;;;;;;12421284;28;20117;-38
2023/06/14 02:25:04;;;;;;;5.53;2.30;;;17.00;99.90;;;;;;12428245;28;20050;-38
2023/06/14 02:31:06;;;;;;;5.35;3.08;;;16.70;99.90;;;;;;12404367;28;20391;-38
2023/06/14 02:37:08;;;;;;;4.88;2.15;;;16.50;99.90;;;;;;12432706;28;20092;-36
2023/06/14 02:43:10;;;;;;;4.90;2.00;;;16.50;99.90;;;;;;12401643;28;20080;-38
2023/06/14 02:49:12;;;;;;;5.80;2.30;;;15.50;99.90;;;;;;12412196;28;20502;-38
2023/06/14 02:55:14;;;;;;;5.22;2.15;;;15.60;99.90;;;;;;12402493;28;20050;-38
2023/06/14 03:01:16;;;;;;;4.15;2.13;;;15.90;99.90;;;;;;12401029;28;20047;-38
2023/06/14 03:07:20;;;;;;;4.10;2.03;;;16.10;99.90;;;;;;12424486;28;20042;-38
2023/06/14 03:13:22;;;;;;;6.73;2.13;;;16.10;99.90;;;;;;12403932;28;20132;-38
2023/06/14 03:19:25;;;;;;;6.60;2.20;;;15.50;99.90;;;;;;12408673;28;20331;-38
2023/06/14 03:25:29;;;;;;;5.78;2.00;;;15.00;99.90;;;;;;12414299;28;20155;-38
2023/06/14 03:31:32;;;;;;;;;;;14.50;99.90;;;;;;12399426;28;20517;-38
2023/06/14 03:37:34;;;;;;;7.20;2.30;;;14.50;99.90;;;;;;12412542;28;19932;-39
2023/06/14 03:43:36;;;;;;;5.32;2.17;;;14.60;99.90;;;;;;12410858;28;21534;-38
2023/06/14 03:49:38;;;;;;;4.13;2.40;;;14.20;99.90;;;;;;12398028;28;20053;-38
2023/06/14 03:55:41;;;;;;;10.95;2.10;;;14.30;99.90;;;;;;12395484;28;20042;-38
2023/06/14 04:01:46;;;;;;;4.32;2.33;;;14.60;99.90;;;;;;12391260;28;20058;-38
2023/06/14 04:07:50;;;;;;;6.72;2.00;;;15.20;99.90;;;;;;12381582;28;20047;-38
2023/06/14 04:13:53;;;;;;;3.28;1.67;;;15.20;99.90;;;;;;12398017;28;20697;-38
2023/06/14 04:19:58;;;;;;;3.33;1.80;;;15.30;99.90;;;;;;12401515;28;20442;-38
2023/06/14 04:26:02;;;;;;;4.60;1.80;;;15.30;99.90;;;;;;12408748;28;20053;-39
2023/06/14 04:32:06;;;;;;;3.65;1.88;;;15.70;99.90;;;;;;12403199;28;20517;-38
2023/06/14 04:38:11;;;;;;;2.60;1.65;;;16.30;99.90;;;;;;12405992;28;20045;-38
2023/06/14 04:44:13;;;;;;;4.10;1.45;;;16.60;99.90;;;;;;12381209;28;20046;-38
2023/06/14 04:50:16;;;;;;;2.45;1.45;;;16.20;99.90;;;;;;12397792;28;20502;-38
2023/06/14 04:56:18;;;;;;;4.68;1.63;;;16.80;99.90;;;;;;12388634;28;20532;-38
2023/06/14 05:02:20;;;;;;;3.67;1.90;;;15.90;99.90;;;;;;12377895;28;20088;-38
2023/06/14 05:08:25;;;;;;;3.15;1.65;;;15.80;99.90;;;;;;12379186;28;20046;-38
2023/06/14 05:14:27;;;;;;;3.67;1.55;;;16.50;99.90;;;;;;12402510;28;20108;-38
2023/06/14 05:20:30;;;;;;;3.85;1.88;;;16.00;99.90;;;;;;12419460;28;20133;-38
2023/06/14 05:26:32;;;;;;;2.60;1.40;;;15.60;99.90;;;;;;12408104;28;20506;-39
2023/06/14 05:32:34;;;;;;;2.55;1.40;;;15.70;99.90;;;;;;12404260;28;20054;-39
2023/06/14 05:38:35;;;;;;;6.28;2.25;;;15.70;99.90;;;;;;12415950;28;20144;-38
2023/06/14 05:44:37;;;;;;;7.22;2.20;;;16.10;99.90;;;;;;12412986;28;20045;-39
2023/06/14 05:50:39;;;;;;;7.38;2.13;;;15.90;99.90;;;;;;12424196;28;20061;-37
2023/06/14 05:56:41;;;;;;;3.65;1.80;;;15.80;99.90;;;;;;12404812;28;20058;-38
2023/06/14 06:02:44;;;;;;;5.03;1.90;;;15.90;99.90;;;;;;12393228;28;20053;-37
2023/06/14 06:08:46;;;;;;;6.43;2.17;;;15.90;99.90;;;;;;12402164;28;20058;-38
2023/06/14 06:14:49;;;;;;;10.90;2.00;;;16.10;99.90;;;;;;12387659;28;20181;-38
2023/06/14 06:20:51;;;;;;;4.20;1.80;;;16.20;99.90;;;;;;12419064;28;20038;-38
2023/06/14 06:26:53;;;;;;;5.60;1.58;;;16.20;99.90;;;;;;12412628;28;20445;-38
2023/06/14 06:32:58;;;;;;;2.75;1.33;;;16.70;99.90;;;;;;12410511;28;20057;-38
2023/06/14 06:39:00;;;;;;;5.05;1.50;;;16.50;99.90;;;;;;12418919;28;20050;-38
2023/06/14 06:45:03;;;;;;;2.58;1.17;;;16.50;99.90;;;;;;12411149;28;20057;-38
2023/06/14 06:51:05;;;;;;;6.28;1.38;;;16.10;99.90;;;;;;12405029;28;20043;-38
2023/06/14 06:57:07;;;;;;;5.63;1.67;;;16.50;99.90;;;;;;12421358;28;20544;-38
2023/06/14 07:03:10;;;;;;;3.50;1.30;;;16.80;99.90;;;;;;12404524;28;20057;-38
2023/06/14 07:09:13;;;;;;;5.32;1.40;;;16.80;99.90;;;;;;12402977;28;20049;-40
2023/06/14 07:15:15;;;;;;;2.00;1.25;;;16.60;99.90;;;;;;12411711;28;20076;-38
2023/06/14 07:21:18;;;;;;;3.75;1.60;;;16.80;99.90;;;;;;12405338;28;20085;-38
2023/06/14 07:27:20;;;;;;;3.72;1.52;;;16.80;99.90;;;;;;12431437;28;20092;-38
2023/06/14 07:33:22;;;;;;;4.75;1.60;;;16.90;99.90;;;;;;12415677;28;20049;-38
2023/06/14 07:39:24;;;;;;;4.43;1.40;;;16.80;99.90;;;;;;12392973;28;20046;-38
2023/06/14 07:45:26;;;;;;;3.60;1.63;;;17.00;99.90;;;;;;12404793;28;20058;-38
2023/06/14 07:51:28;;;;;;;2.83;1.50;;;16.80;99.90;;;;;;12403610;28;20050;-38
2023/06/14 07:57:30;;;;;;;3.13;1.63;;;16.80;99.90;;;;;;12391547;28;20519;-38
2023/06/14 08:03:32;;;;;;;4.25;1.58;;;16.60;99.90;;;;;;12395989;28;20050;-38
2023/06/14 08:09:37;;;;;;;5.00;1.60;;;17.00;99.90;;;;;;12423851;28;20096;-39
2023/06/14 08:15:39;;;;;;;2.55;1.50;;;17.50;99.90;;;;;;12409198;28;20037;-38
2023/06/14 08:21:42;;;;;;;4.15;1.55;;;17.50;99.90;;;;;;12406347;28;20050;-39
2023/06/14 08:27:44;;;;;;;4.68;1.38;;;17.50;99.90;;;;;;12406521;28;20065;-39
2023/06/14 08:33:46;;;;;;;4.35;1.40;;;17.90;99.90;;;;;;12424019;28;20107;-38
2023/06/14 08:39:48;;;;;;;3.25;1.30;;;17.90;99.90;;;;;;12415841;28;20054;-39
2023/06/14 08:45:57;;;;;;;4.65;1.40;;;17.90;99.90;;;;;;12415965;28;20090;-39
2023/06/14 08:52:00;;;;;;;2.40;1.10;;;18.00;99.90;;;;;;12396978;28;20050;-38
2023/06/14 08:58:04;;;;;;;5.40;1.50;;;18.10;99.90;;;;;;12412085;28;20054;-38
2023/06/14 09:04:07;;;;;;;6.90;2.05;;;18.10;99.90;;;;;;12408246;28;20077;-38
2023/06/14 09:10:14;;;;;;;2.20;1.08;;;18.30;99.90;;;;;;12414182;28;20068;-39
2023/06/14 09:16:16;;;;;;;2.78;1.33;;;18.30;99.90;;;;;;12400338;28;20050;-39
2023/06/14 09:22:19;;;;;;;2.80;1.30;;;18.70;99.90;;;;;;12408854;28;20056;-39
2023/06/14 09:28:27;;;;;;;3.78;1.40;;;18.90;99.90;;;;;;12423500;28;20053;-39
2023/06/14 09:34:29;;;;;;;2.72;1.40;;;19.00;99.90;;;;;;12405349;28;20081;-39
2023/06/14 09:40:35;;;;;;;7.50;1.45;;;19.10;99.90;;;;;;12412174;28;20133;-39
2023/06/14 09:46:38;;;;;;;5.00;1.23;;;18.90;99.90;;;;;;12410937;28;20049;-40
2023/06/14 09:52:43;;;;;;;5.70;1.50;;;19.70;99.90;;;;;;12389789;28;20410;-38
2023/06/14 09:58:45;;;;;;;4.50;1.20;;;19.70;99.90;;;;;;12407804;28;20056;-39
2023/06/14 10:05:09;;;;;;;4.13;1.20;;;19.80;99.90;;;;;;12408781;28;20072;-39
2023/06/14 10:11:12;;;;;;;2.10;1.23;;;19.50;99.90;;;;;;12398435;28;20054;-39
2023/06/14 10:17:20;;;;;;;;;;;19.50;99.90;;;;;;12380320;28;20058;-39
2023/06/14 10:23:24;;;;;;;2.15;1.33;;;20.10;99.90;;;;;;12422411;28;19922;-39
2023/06/14 10:29:31;;;;;;;2.42;1.20;;;20.30;99.90;;;;;;12406797;28;20062;-39
2023/06/14 10:35:34;;;;;;;2.65;1.33;;;20.50;99.90;;;;;;12405195;28;20054;-39
2023/06/14 10:41:38;;;;;;;3.40;1.40;;;20.70;99.90;;;;;;12398598;28;20061;-38
2023/06/14 10:47:40;;;;;;;3.20;1.15;;;20.20;99.90;;;;;;12412505;28;20053;-41
2023/06/14 10:53:42;;;;;;;3.13;1.08;;;20.30;99.90;;;;;;12400203;28;20046;-39
2023/06/14 10:59:46;;;;;;;4.03;1.20;;;20.90;99.90;;;;;;12400507;28;20069;-39
2023/06/14 11:05:52;;;;;;;3.58;1.10;;;20.40;99.90;;;;;;12412285;28;20038;-40
2023/06/14 11:11:57;;;;;;;3.85;1.20;;;20.90;99.90;;;;;;12422333;28;20118;-40
2023/06/14 11:18:03;;;;;;;4.55;1.13;;;20.90;99.90;;;;;;12397281;28;20062;-40
2023/06/14 11:24:10;;;;;;;3.05;1.23;;;20.70;99.90;;;;;;12397096;28;20086;-40
2023/06/14 11:30:13;;;;;;;2.67;1.15;;;20.80;99.90;;;;;;12419843;28;20050;-40
2023/06/14 11:36:15;;;;;;;5.07;1.20;;;21.10;99.90;;;;;;12430956;28;20053;-39
2023/06/14 11:42:18;;;;;;;3.60;1.10;;;21.50;99.90;;;;;;12414414;28;20406;-39
2023/06/14 11:48:19;;;;;;;1.98;1.15;;;21.40;99.90;;;;;;12419429;28;20429;-39
2023/06/14 11:54:21;;;;;;;2.58;1.48;;;21.80;99.90;;;;;;12400234;28;20077;-39
2023/06/14 12:00:27;;;;;;;3.10;1.35;;;21.90;99.90;;;;;;12405323;28;20054;-38
2023/06/14 12:06:35;;;;;;;2.85;1.20;;;21.40;99.90;;;;;;12419484;28;20046;-39
2023/06/14 12:12:39;;;;;;;2.53;1.35;;;22.10;99.90;;;;;;12420861;28;20045;-39
2023/06/14 12:18:43;;;;;;;2.70;0.98;;;22.00;99.90;;;;;;12410160;28;20076;-40
2023/06/14 12:24:46;;;;;;;2.28;1.33;;;22.20;99.90;;;;;;12402048;28;20517;-39
2023/06/14 12:30:48;;;;;;;2.08;1.17;;;21.90;99.90;;;;;;12399303;28;20050;-38
2023/06/14 12:36:50;;;;;;;3.15;1.30;;;21.70;99.90;;;;;;12421140;28;20056;-39
2023/06/14 12:42:54;;;;;;;2.33;1.48;;;22.00;99.90;;;;;;12405990;28;20046;-38
2023/06/14 12:48:56;;;;;;;4.90;1.30;;;22.10;99.90;;;;;;12406372;28;20057;-39
2023/06/14 12:54:57;;;;;;;2.90;1.50;;;21.30;99.90;;;;;;12414792;28;20050;-38
2023/06/14 13:01:00;;;;;;;5.47;1.38;;;21.60;99.90;;;;;;12393244;28;20050;-38
2023/06/14 13:07:01;;;;;;;5.78;1.58;;;22.20;99.90;;;;;;12385391;28;20085;-39
2023/06/14 13:13:03;;;;;;;2.72;1.45;;;21.80;99.90;;;;;;12406946;28;20038;-38
2023/06/14 13:19:06;;;;;;;6.93;2.45;;;21.60;99.90;;;;;;12401376;28;20057;-38
2023/06/14 13:25:08;;;;;;;2.42;1.58;;;21.10;99.90;;;;;;12401568;28;20050;-39
2023/06/14 13:31:10;;;;;;;3.97;1.60;;;21.40;99.90;;;;;;12392897;28;20426;-38
2023/06/14 13:37:12;;;;;;;4.63;1.95;;;21.80;99.90;;;;;;12409473;28;20077;-39
2023/06/14 13:43:14;;;;;;;3.22;1.52;;;22.10;99.90;;;;;;12382485;28;20050;-39
2023/06/14 13:49:16;;;;;;;8.95;2.25;;;22.50;99.90;;;;;;12427650;28;20988;-38
2023/06/14 13:55:18;;;;;;;4.38;1.70;;;21.70;99.90;;;;;;12417277;28;20046;-39
2023/06/14 14:01:20;;;;;;;4.35;1.88;;;21.80;99.90;;;;;;12406347;28;20046;-39
2023/06/14 14:07:25;;;;;;;5.28;1.90;;;21.90;99.90;;;;;;12392452;28;20628;-38
2023/06/14 14:13:27;;;;;;;7.85;2.00;;;22.50;99.90;;;;;;12387381;28;20590;-38
2023/06/14 14:19:29;;;;;;;12.48;2.00;;;22.40;99.90;;;;;;12403451;28;20442;-38
2023/06/14 14:25:31;;;;;;;3.95;2.03;;;22.70;99.90;;;;;;12407822;28;20459;-39
2023/06/14 14:31:33;;;;;;;5.07;1.92;;;22.70;99.90;;;;;;12414889;28;20257;-38
2023/06/14 14:37:35;;;;;;;5.70;2.00;;;22.00;99.90;;;;;;12424146;28;20085;-38
2023/06/14 14:43:39;;;;;;;7.28;1.90;;;22.10;99.90;;;;;;12404943;28;20045;-39
2023/06/14 14:49:41;;;;;;;3.05;1.60;;;22.30;99.90;;;;;;12408420;28;20038;-38
2023/06/14 14:55:44;;;;;;;2.83;1.90;;;22.40;99.90;;;;;;12414993;28;20049;-39
2023/06/14 15:01:46;;;;;;;5.13;1.90;;;22.30;99.90;;;;;;12394250;28;20543;-37
2023/06/14 15:07:48;;;;;;;4.90;1.90;;;22.40;99.90;;;;;;12387000;28;20053;-37
2023/06/14 15:13:50;;;;;;;3.00;2.03;;;22.90;99.90;;;;;;12402846;28;20062;-37
2023/06/14 15:19:52;;;;;;;5.00;1.60;;;22.70;99.90;;;;;;12421477;28;20050;-37
2023/06/14 15:25:54;;;;;;;3.15;1.92;;;22.40;99.90;;;;;;12418415;28;20445;-37
2023/06/14 15:31:57;;;;;;;4.90;2.00;;;22.50;99.90;;;;;;12421907;28;20042;-37
2023/06/14 15:37:59;;;;;;;5.40;2.20;;;22.20;99.90;;;;;;12420097;28;20425;-36
2023/06/14 15:44:01;;;;;;;4.68;2.10;;;22.40;99.90;;;;;;12412550;28;20057;-37
2023/06/14 15:50:07;;;;;;;4.22;1.85;;;22.30;99.90;;;;;;12407924;28;20192;-37
2023/06/14 15:56:09;;;;;;;8.40;2.30;;;22.10;99.90;;;;;;12412597;28;20104;-35
2023/06/14 16:02:11;;;;;;;5.55;1.95;;;22.00;99.90;;;;;;12400510;28;20463;-35
2023/06/14 16:08:14;;;;;;;10.43;2.45;;;22.50;99.90;;;;;;12395229;28;20042;-36
2023/06/14 16:14:37;;;;;;;5.67;2.33;;;22.60;99.90;;;;;;12419740;28;20095;-36
2023/06/14 16:20:39;;;;;;;5.07;2.22;;;22.50;99.90;;;;;;12419023;28;20344;-35
2023/06/14 16:26:40;;;;;;;4.40;2.67;;;22.50;99.90;;;;;;12405328;28;20073;-36
2023/06/14 16:32:42;;;;;;;7.93;2.38;;;22.00;99.90;;;;;;12403429;28;20840;-37
2023/06/14 16:38:44;;;;;;;5.72;2.42;;;21.60;99.90;;;;;;12409948;28;20049;-36
2023/06/14 16:44:46;;;;;;;5.30;2.30;;;21.60;99.90;;;;;;12412212;28;20053;-36
2023/06/14 16:50:51;;;;;;;5.15;2.47;;;21.90;99.90;;;;;;12410723;28;20442;-36
2023/06/14 16:56:53;;;;;;;3.15;2.00;;;22.00;99.90;;;;;;12387010;28;20073;-37
2023/06/14 17:02:55;;;;;;;4.82;2.20;;;22.30;99.90;;;;;;12406268;28;20062;-37
2023/06/14 17:08:57;;;;;;;5.43;2.70;;;22.40;99.90;;;;;;12397909;28;20054;-37
2023/06/14 17:14:59;;;;;;;6.00;2.45;;;22.10;99.90;;;;;;12394353;28;20292;-37
2023/06/14 17:21:01;;;;;;;7.80;2.33;;;22.10;99.90;;;;;;12399784;28;20045;-37
2023/06/14 17:27:04;;;;;;;4.40;2.30;;;22.30;99.90;;;;;;12410283;28;20049;-37
2023/06/14 17:33:09;;;;;;;4.57;2.70;;;22.30;99.90;;;;;;12396828;28;20394;-38
2023/06/14 17:39:17;;;;;;;8.13;2.42;;;22.90;99.90;;;;;;12427485;28;20049;-37
2023/06/14 17:45:19;;;;;;;9.73;2.42;;;22.80;99.90;;;;;;12416700;28;20050;-37
2023/06/14 17:51:21;;;;;;;7.13;2.50;;;22.40;99.90;;;;;;12404099;28;20046;-37
2023/06/14 17:57:23;;;;;;;4.87;2.17;;;22.20;99.90;;;;;;12424704;28;20058;-37
2023/06/14 18:03:25;;;;;;;4.85;2.20;;;22.20;99.90;;;;;;12429752;28;20053;-37
2023/06/14 18:09:28;;;;;;;6.47;2.65;;;22.10;99.90;;;;;;12440130;28;20052;-37
2023/06/14 18:15:30;;;;;;;8.90;2.50;;;21.80;99.90;;;;;;12420331;28;20048;-37
2023/06/14 18:21:32;;;;;;;7.18;2.67;;;21.80;99.90;;;;;;12403988;28;20069;-38
2023/06/14 18:27:34;;;;;;;4.18;2.35;;;21.50;99.90;;;;;;12432661;28;20057;-37
2023/06/14 18:33:36;;;;;;;8.85;2.70;;;21.50;99.90;;;;;;12419210;28;20053;-37
2023/06/14 18:39:38;;;;;;;5.18;2.38;;;21.40;99.90;;;;;;12417514;28;20050;-37
2023/06/14 18:45:40;;;;;;;4.95;2.60;;;21.40;99.90;;;;;;12412299;28;20046;-37
2023/06/14 18:51:42;;;;;;;6.70;2.65;;;21.30;99.90;;;;;;12413170;28;20057;-36
2023/06/14 18:57:44;;;;;;;5.20;2.35;;;21.30;99.90;;;;;;12411883;28;20054;-36
2023/06/14 19:03:46;;;;;;;6.85;2.72;;;21.10;99.90;;;;;;12384957;28;20101;-37
2023/06/14 19:09:48;;;;;;;5.82;2.20;;;21.10;99.90;;;;;;12408824;28;20053;-37
2023/06/14 19:15:52;;;;;;;5.00;2.63;;;20.90;99.90;;;;;;12398759;28;20387;-37
2023/06/14 19:21:55;;;;;;;6.63;2.58;;;20.90;99.90;;;;;;12405313;28;20057;-37
2023/06/14 19:27:57;;;;;;;5.13;2.22;;;20.80;99.90;;;;;;12419966;28;20070;-37
2023/06/14 19:33:59;;;;;;;5.53;2.70;;;21.00;99.90;;;;;;12427387;28;20045;-37
2023/06/14 19:40:01;;;;;;;5.10;2.33;;;20.90;99.90;;;;;;12414562;28;20429;-37
2023/06/14 19:46:03;;;;;;;5.65;3.15;;;20.90;99.90;;;;;;12382107;28;20050;-37
2023/06/14 19:52:06;;;;;;;5.75;2.40;;;20.80;99.90;;;;;;12381503;28;20141;-36
2023/06/14 19:58:08;;;;;;;6.85;3.08;;;20.80;99.90;;;;;;12350748;28;20058;-37
2023/06/14 20:04:10;;;;;;;4.20;2.70;;;20.80;99.90;;;;;;12382156;28;20061;-36
2023/06/14 20:10:12;;;;;;;10.32;2.60;;;20.60;99.90;;;;;;12407544;28;20038;-37
2023/06/14 20:16:15;;;;;;;5.05;2.70;;;20.40;99.90;;;;;;12411840;28;20054;-37
2023/06/14 20:22:17;;;;;;;7.55;2.45;;;20.20;99.90;;;;;;12408635;28;20054;-36
2023/06/14 20:28:19;;;;;;;7.13;2.63;;;20.10;99.90;;;;;;12432854;28;20129;-36
2023/06/14 20:34:23;;;;;;;4.88;3.00;;;19.90;99.90;;;;;;12414821;28;20038;-36
2023/06/14 20:40:25;;;;;;;8.07;2.90;;;19.60;99.90;;;;;;12411472;28;20046;-36
2023/06/14 20:46:29;;;;;;;7.63;2.50;;;19.30;99.90;;;;;;12396884;28;20057;-36
2023/06/14 20:52:31;;;;;;;;;;;19.10;99.90;;;;;;12411836;28;20139;-36
2023/06/14 20:58:33;;;;;;;6.10;2.78;;;19.00;99.90;;;;;;12393327;28;20036;-36
2023/06/14 21:04:34;;;;;;;6.30;2.70;;;19.00;99.90;;;;;;12405444;28;20064;-37
2023/06/14 21:10:37;;;;;;;3.92;2.53;;;19.10;99.90;;;;;;12406180;28;20972;-36
2023/06/14 21:16:38;;;;;;;5.30;2.38;;;19.00;99.90;;;;;;12392035;28;20056;-36
2023/06/14 21:22:40;;;;;;;4.28;2.35;;;19.00;99.90;;;;;;12410920;28;20049;-36
2023/06/14 21:28:42;;;;;;;6.93;2.70;;;18.90;99.90;;;;;;12419262;28;20045;-36
2023/06/14 21:34:45;;;;;;;6.47;2.40;;;18.80;99.90;;;;;;12415027;28;20034;-36
2023/06/14 21:40:48;;;;;;;7.10;2.60;;;18.60;99.90;;;;;;12372861;28;20065;-35
2023/06/14 21:46:50;;;;;;;6.77;2.40;;;18.60;99.90;;;;;;12416450;28;20141;-36
2023/06/14 21:52:52;;;;;;;4.78;3.10;;;18.50;99.90;;;;;;12394692;28;20104;-36
2023/06/14 21:58:54;;;;;;;5.50;2.88;;;18.30;99.90;;;;;;12374621;28;20054;-36
2023/06/14 22:04:56;;;;;;;10.07;3.17;;;18.20;99.90;;;;;;12406243;28;20053;-36
2023/06/14 22:11:01;;;;;;;7.78;2.70;;;18.00;99.90;;;;;;12387848;28;20395;-36
2023/06/14 22:17:03;;;;;;;5.93;2.72;;;17.90;99.90;;;;;;12400553;28;20176;-36
2023/06/14 22:23:07;;;;;;;4.60;2.75;;;17.80;99.90;;;;;;12421646;28;20736;-36
2023/06/14 22:29:10;;;;;;;5.35;2.80;;;17.80;99.90;;;;;;12414113;28;20070;-36
2023/06/14 22:35:12;;;;;;;6.38;3.15;;;17.80;99.90;;;;;;12423355;28;20169;-36
2023/06/14 22:41:16;;;;;;;8.55;2.95;;;17.80;99.90;;;;;;12414151;28;20042;-36
2023/06/14 22:47:20;;;;;;;;;;;17.70;99.90;;;;;;12412291;28;20061;-36
2023/06/14 22:53:22;;;;;;;5.10;2.90;;;17.60;99.90;;;;;;12397889;28;20015;-36
2023/06/14 22:59:27;;;;;;;5.40;2.83;;;17.60;99.90;;;;;;12408878;28;20043;-36
2023/06/14 23:05:29;;;;;;;4.00;2.78;;;17.50;99.90;;;;;;12413521;28;20077;-36
2023/06/14 23:11:32;;;;;;;5.15;2.63;;;17.40;99.90;;;;;;12410352;28;20042;-36
2023/06/14 23:17:34;;;;;;;5.55;3.22;;;17.30;99.90;;;;;;12423586;28;20054;-36
2023/06/14 23:23:37;;;;;;;7.38;3.25;;;17.20;99.90;;;;;;12412294;28;20039;-36
2023/06/14 23:29:42;;;;;;;4.63;2.65;;;17.20;99.90;;;;;;12437325;28;20411;-36
2023/06/14 23:35:44;;;;;;;4.60;3.00;;;17.20;99.90;;;;;;12423617;28;20047;-35
2023/06/14 23:41:46;;;;;;;4.88;2.63;;;17.30;99.90;;;;;;12410824;28;20047;-36
2023/06/14 23:47:51;;;;;;;9.10;3.22;;;17.20;99.90;;;;;;12422110;28;20131;-36
2023/06/14 23:53:54;;;;;;;4.32;2.90;;;17.10;99.90;;;;;;12409807;28;20083;-36
2023/06/14 23:59:56;;;;;;;8.30;3.63;;;16.90;99.90;;;;;;12389231;28;20046;-36
